createdAt,value
2017-12-31T00:00:58.523Z,0
2017-12-31T00:01:58.319Z,0
2017-12-31T00:02:58.071Z,0
2017-12-31T00:03:57.991Z,0
2017-12-31T00:04:57.803Z,0
2017-12-31T00:05:58.063Z,0
2017-12-31T00:06:58.486Z,0
2017-12-31T00:07:58.989Z,0
2017-12-31T00:08:58.559Z,0
2017-12-31T00:09:59.461Z,0
2017-12-31T00:10:58.614Z,0
2017-12-31T00:11:59.385Z,0
2017-12-31T00:12:58.692Z,0
2017-12-31T00:13:57.661Z,0
2017-12-31T00:14:58.661Z,0
2017-12-31T00:15:58.518Z,0
2017-12-31T00:17:00.128Z,0
2017-12-31T00:17:58.660Z,0
2017-12-31T00:18:58.917Z,0
2017-12-31T00:19:58.242Z,0
2017-12-31T00:20:58.394Z,0
2017-12-31T00:21:58.740Z,0
2017-12-31T00:22:59.231Z,0
2017-12-31T00:23:58.501Z,0
2017-12-31T00:24:58.854Z,0
2017-12-31T00:25:58.164Z,0
2017-12-31T00:26:59.211Z,0
2017-12-31T00:28:09.084Z,0
2017-12-31T00:29:06.618Z,0
2017-12-31T00:29:58.829Z,0
2017-12-31T00:31:00.439Z,0
2017-12-31T00:31:58.091Z,0
2017-12-31T00:32:58.121Z,0
2017-12-31T00:33:58.209Z,0
2017-12-31T00:34:58.466Z,0
2017-12-31T00:35:58.824Z,0
2017-12-31T00:36:57.641Z,0
2017-12-31T00:38:20.690Z,0
2017-12-31T00:39:21.009Z,0
2017-12-31T00:40:21.266Z,0
2017-12-31T00:41:20.143Z,0
2017-12-31T00:42:20.934Z,0
2017-12-31T00:43:21.220Z,0
2017-12-31T00:44:21.543Z,0
2017-12-31T00:45:20.713Z,0
2017-12-31T00:46:20.876Z,0
2017-12-31T00:47:20.995Z,0
2017-12-31T00:48:20.868Z,0
2017-12-31T00:49:21.438Z,0
2017-12-31T00:50:20.873Z,0
2017-12-31T00:51:20.867Z,0
2017-12-31T00:52:20.875Z,0
2017-12-31T00:53:20.851Z,0
2017-12-31T00:54:20.905Z,0
2017-12-31T00:55:21.059Z,0
2017-12-31T00:56:21.159Z,0
2017-12-31T00:57:21.268Z,0
2017-12-31T00:58:20.802Z,0
2017-12-31T00:59:21.248Z,0
2017-12-31T01:00:42.243Z,0
2017-12-31T01:01:41.931Z,0
2017-12-31T01:02:41.858Z,0
2017-12-31T01:03:41.997Z,0
2017-12-31T01:04:42.035Z,0
2017-12-31T01:05:41.681Z,0
2017-12-31T01:06:43.138Z,0
2017-12-31T01:07:42.088Z,0
2017-12-31T01:08:42.344Z,0
2017-12-31T01:09:42.788Z,0
2017-12-31T01:10:43.151Z,0
2017-12-31T01:11:42.293Z,0
2017-12-31T01:12:42.121Z,0
2017-12-31T01:13:42.171Z,0
2017-12-31T01:14:42.580Z,0
2017-12-31T01:15:42.921Z,0
2017-12-31T01:16:42.252Z,0
2017-12-31T01:17:42.349Z,0
2017-12-31T01:18:41.989Z,0
2017-12-31T01:19:42.139Z,0
2017-12-31T01:20:42.617Z,0
2017-12-31T01:21:42.599Z,0
2017-12-31T01:22:42.190Z,0
2017-12-31T01:23:42.231Z,0
2017-12-31T01:24:42.600Z,0
2017-12-31T01:25:43.302Z,0
2017-12-31T01:26:42.381Z,0
2017-12-31T01:27:42.381Z,0
2017-12-31T01:28:42.028Z,0
2017-12-31T01:29:42.003Z,0
2017-12-31T01:31:03.508Z,0
2017-12-31T01:32:04.519Z,0
2017-12-31T01:33:04.854Z,0
2017-12-31T01:34:05.177Z,0
2017-12-31T01:35:03.844Z,0
2017-12-31T01:36:04.414Z,0
2017-12-31T01:37:04.770Z,0
2017-12-31T01:38:04.217Z,0
2017-12-31T01:39:04.538Z,0
2017-12-31T01:40:04.577Z,0
2017-12-31T01:41:04.315Z,0
2017-12-31T01:42:04.057Z,0
2017-12-31T01:43:25.648Z,0
2017-12-31T01:44:27.029Z,0
2017-12-31T01:45:26.239Z,0
2017-12-31T01:46:26.662Z,0
2017-12-31T01:47:26.617Z,0
2017-12-31T01:48:26.045Z,0
2017-12-31T01:49:26.142Z,0
2017-12-31T01:50:25.714Z,0
2017-12-31T01:51:26.170Z,0
2017-12-31T01:52:25.882Z,0
2017-12-31T01:53:25.895Z,0
2017-12-31T01:54:25.644Z,0
2017-12-31T01:55:26.054Z,0
2017-12-31T01:56:26.832Z,0
2017-12-31T01:57:29.789Z,0
2017-12-31T01:58:26.180Z,0
2017-12-31T01:59:25.989Z,0
2017-12-31T02:00:26.413Z,0
2017-12-31T02:01:26.458Z,0
2017-12-31T02:02:26.907Z,0
2017-12-31T02:03:25.957Z,0
2017-12-31T02:04:25.753Z,0
2017-12-31T02:05:26.138Z,0
2017-12-31T02:06:26.637Z,0
2017-12-31T02:07:26.643Z,0
2017-12-31T02:08:27.027Z,0
2017-12-31T02:09:26.096Z,0
2017-12-31T02:10:26.075Z,0
2017-12-31T02:11:26.217Z,0
2017-12-31T02:12:26.700Z,0
2017-12-31T02:13:48.462Z,0
2017-12-31T02:14:48.822Z,0
2017-12-31T02:15:48.184Z,0
2017-12-31T02:16:48.467Z,0
2017-12-31T02:17:48.948Z,0
2017-12-31T02:18:47.831Z,0
2017-12-31T02:19:47.720Z,0
2017-12-31T02:20:48.258Z,0
2017-12-31T02:21:48.000Z,0
2017-12-31T02:22:47.723Z,0
2017-12-31T02:23:48.030Z,0
2017-12-31T02:24:48.555Z,0
2017-12-31T02:25:49.116Z,0
2017-12-31T02:26:48.198Z,0
2017-12-31T02:27:47.979Z,0
2017-12-31T02:29:09.484Z,0
2017-12-31T02:30:10.151Z,0
2017-12-31T02:31:10.052Z,0
2017-12-31T02:32:09.735Z,0
2017-12-31T02:33:10.060Z,0
2017-12-31T02:34:10.841Z,0
2017-12-31T02:35:10.115Z,0
2017-12-31T02:36:10.510Z,0
2017-12-31T02:37:10.379Z,0
2017-12-31T02:38:10.348Z,0
2017-12-31T02:39:11.075Z,0
2017-12-31T02:40:10.416Z,0
2017-12-31T02:41:10.820Z,0
2017-12-31T02:42:10.168Z,0
2017-12-31T02:43:09.904Z,0
2017-12-31T02:44:10.493Z,0
2017-12-31T02:45:10.852Z,0
2017-12-31T02:46:09.992Z,0
2017-12-31T02:47:09.575Z,0
2017-12-31T02:48:09.418Z,0
2017-12-31T02:49:10.225Z,0
2017-12-31T02:50:10.269Z,0
2017-12-31T02:51:10.678Z,0
2017-12-31T02:52:10.115Z,0
2017-12-31T02:53:09.953Z,0
2017-12-31T02:54:10.142Z,0
2017-12-31T02:55:10.044Z,0
2017-12-31T02:56:10.444Z,0
2017-12-31T02:57:10.008Z,0
2017-12-31T02:58:09.926Z,0
2017-12-31T02:59:09.602Z,0
2017-12-31T03:00:30.796Z,0
2017-12-31T03:01:32.736Z,0
2017-12-31T03:02:31.486Z,0
2017-12-31T03:03:31.179Z,0
2017-12-31T03:04:30.908Z,0
2017-12-31T03:05:31.895Z,0
2017-12-31T03:06:32.021Z,0
2017-12-31T03:07:31.714Z,0
2017-12-31T03:08:32.137Z,0
2017-12-31T03:09:31.997Z,0
2017-12-31T03:10:32.286Z,0
2017-12-31T03:11:31.099Z,0
2017-12-31T03:12:32.246Z,0
2017-12-31T03:13:52.420Z,0
2017-12-31T03:14:53.284Z,0
2017-12-31T03:15:53.775Z,0
2017-12-31T03:16:53.410Z,0
2017-12-31T03:17:53.037Z,0
2017-12-31T03:18:53.428Z,0
2017-12-31T03:19:53.467Z,0
2017-12-31T03:20:53.234Z,0
2017-12-31T03:21:53.142Z,0
2017-12-31T03:22:52.864Z,0
2017-12-31T03:23:53.224Z,0
2017-12-31T03:24:52.802Z,0
2017-12-31T03:25:53.250Z,0
2017-12-31T03:26:53.104Z,0
2017-12-31T03:27:52.840Z,0
2017-12-31T03:28:52.931Z,0
2017-12-31T03:29:52.738Z,0
2017-12-31T03:30:53.567Z,0
2017-12-31T03:31:53.655Z,0
2017-12-31T03:32:53.749Z,0
2017-12-31T03:33:53.282Z,0
2017-12-31T03:35:00.249Z,0
2017-12-31T03:37:32.693Z,0
2017-12-31T03:38:33.920Z,0
2017-12-31T03:39:54.417Z,0
2017-12-31T03:40:55.828Z,0
2017-12-31T03:41:54.860Z,0
2017-12-31T03:42:55.375Z,0
2017-12-31T03:43:55.280Z,0
2017-12-31T03:44:55.585Z,0
2017-12-31T03:45:55.720Z,0
2017-12-31T03:46:55.952Z,0
2017-12-31T03:47:55.287Z,0
2017-12-31T03:48:54.800Z,0
2017-12-31T03:49:55.265Z,0
2017-12-31T03:50:55.606Z,0
2017-12-31T03:51:55.357Z,0
2017-12-31T03:52:56.044Z,0
2017-12-31T03:53:54.859Z,0
2017-12-31T03:54:54.636Z,0
2017-12-31T03:55:54.409Z,0
2017-12-31T03:56:55.575Z,0
2017-12-31T03:57:55.996Z,0
2017-12-31T03:58:54.866Z,0
2017-12-31T03:59:54.732Z,0
2017-12-31T04:00:54.666Z,0
2017-12-31T04:01:55.613Z,0
2017-12-31T04:03:40.905Z,0
2017-12-31T04:04:41.280Z,0
2017-12-31T04:05:41.310Z,0
2017-12-31T04:06:41.819Z,0
2017-12-31T04:07:41.314Z,0
2017-12-31T04:08:41.442Z,0
2017-12-31T04:09:41.668Z,0
2017-12-31T04:10:41.592Z,0
2017-12-31T04:11:41.925Z,0
2017-12-31T04:12:40.911Z,0
2017-12-31T04:13:41.376Z,0
2017-12-31T04:14:41.569Z,0
2017-12-31T04:15:41.547Z,0
2017-12-31T04:16:41.417Z,0
2017-12-31T04:17:41.760Z,0
2017-12-31T04:18:41.540Z,0
2017-12-31T04:19:41.912Z,0
2017-12-31T04:20:41.842Z,0
2017-12-31T04:21:40.905Z,0
2017-12-31T04:22:41.267Z,0
2017-12-31T04:23:41.580Z,0
2017-12-31T04:24:41.656Z,0
2017-12-31T04:26:03.088Z,0
2017-12-31T04:27:04.420Z,0
2017-12-31T04:28:03.851Z,0
2017-12-31T04:29:25.810Z,0
2017-12-31T04:30:26.764Z,0
2017-12-31T04:31:26.762Z,0
2017-12-31T04:32:27.025Z,0
2017-12-31T04:33:26.450Z,0
2017-12-31T04:34:26.834Z,0
2017-12-31T04:35:27.137Z,0
2017-12-31T04:36:25.783Z,0
2017-12-31T04:37:26.296Z,0
2017-12-31T04:38:26.076Z,0
2017-12-31T04:39:25.965Z,0
2017-12-31T04:40:26.474Z,0
2017-12-31T04:41:26.447Z,0
2017-12-31T04:42:26.165Z,0
2017-12-31T04:43:26.320Z,0
2017-12-31T04:44:26.647Z,0
2017-12-31T04:45:26.519Z,0
2017-12-31T04:46:26.649Z,0
2017-12-31T04:47:26.768Z,0
2017-12-31T04:48:26.455Z,0
2017-12-31T04:49:48.804Z,0
2017-12-31T04:50:48.418Z,0
2017-12-31T04:51:48.550Z,0
2017-12-31T04:52:48.151Z,0
2017-12-31T04:53:49.199Z,0
2017-12-31T04:54:48.949Z,0
2017-12-31T04:55:49.310Z,0
2017-12-31T04:56:49.520Z,0
2017-12-31T04:57:48.919Z,0
2017-12-31T04:59:32.800Z,0
2017-12-31T05:00:34.115Z,0
2017-12-31T05:01:33.156Z,0
2017-12-31T05:02:34.379Z,0
2017-12-31T05:03:33.698Z,0
2017-12-31T05:04:33.731Z,0
2017-12-31T05:05:34.039Z,0
2017-12-31T05:06:33.432Z,0
2017-12-31T05:07:33.461Z,0
2017-12-31T05:08:33.666Z,0
2017-12-31T05:09:33.684Z,0
2017-12-31T05:10:34.167Z,0
2017-12-31T05:11:32.847Z,0
2017-12-31T05:12:34.294Z,0
2017-12-31T05:13:33.782Z,0
2017-12-31T05:14:34.219Z,0
2017-12-31T05:15:33.208Z,0
2017-12-31T05:16:33.487Z,0
2017-12-31T05:17:33.593Z,0
2017-12-31T05:18:33.884Z,0
2017-12-31T05:19:55.749Z,0
2017-12-31T05:20:56.610Z,0
2017-12-31T05:21:56.931Z,0
2017-12-31T05:22:55.986Z,0
2017-12-31T05:23:56.997Z,0
2017-12-31T05:24:56.463Z,0
2017-12-31T05:25:56.335Z,0
2017-12-31T05:26:56.801Z,0
2017-12-31T05:27:56.878Z,0
2017-12-31T05:28:57.310Z,0
2017-12-31T05:29:56.194Z,0
2017-12-31T05:30:55.789Z,0
2017-12-31T05:31:56.945Z,0
2017-12-31T05:32:57.378Z,0
2017-12-31T05:33:56.466Z,0
2017-12-31T05:34:56.061Z,0
2017-12-31T05:35:56.400Z,0
2017-12-31T05:36:56.789Z,0
2017-12-31T05:37:56.972Z,0
2017-12-31T05:38:56.429Z,0
2017-12-31T05:40:19.155Z,0
2017-12-31T05:41:19.688Z,0
2017-12-31T05:42:19.570Z,0
2017-12-31T05:43:20.051Z,0
2017-12-31T05:44:19.120Z,0
2017-12-31T05:45:18.753Z,0
2017-12-31T05:46:20.003Z,0
2017-12-31T05:47:18.959Z,0
2017-12-31T05:48:19.292Z,0
2017-12-31T05:49:19.521Z,0
2017-12-31T05:50:19.877Z,0
2017-12-31T05:51:19.541Z,0
2017-12-31T05:52:19.472Z,0
2017-12-31T05:53:19.511Z,0
2017-12-31T05:54:19.899Z,0
2017-12-31T05:55:19.353Z,0
2017-12-31T05:56:19.590Z,0
2017-12-31T05:57:20.042Z,0
2017-12-31T05:58:19.451Z,0
2017-12-31T05:59:19.406Z,0
2017-12-31T06:00:19.673Z,0
2017-12-31T06:01:19.195Z,0
2017-12-31T06:02:19.054Z,0
2017-12-31T06:03:19.301Z,0
2017-12-31T06:04:19.788Z,0
2017-12-31T06:05:19.347Z,0
2017-12-31T06:06:19.743Z,0
2017-12-31T06:07:42.220Z,0
2017-12-31T06:08:42.150Z,0
2017-12-31T06:09:41.987Z,0
2017-12-31T06:10:43.224Z,0
2017-12-31T06:11:41.786Z,0
2017-12-31T06:12:42.258Z,0
2017-12-31T06:13:42.691Z,0
2017-12-31T06:14:43.149Z,0
2017-12-31T06:15:42.094Z,0
2017-12-31T06:16:41.743Z,0
2017-12-31T06:17:43.033Z,0
2017-12-31T06:18:42.541Z,0
2017-12-31T06:19:42.750Z,0
2017-12-31T06:20:43.090Z,0
2017-12-31T06:21:41.679Z,0
2017-12-31T06:22:42.596Z,0
2017-12-31T06:23:42.852Z,0
2017-12-31T06:24:42.418Z,0
2017-12-31T06:25:42.457Z,0
2017-12-31T06:26:42.883Z,0
2017-12-31T06:27:43.153Z,0
2017-12-31T06:28:42.571Z,0
2017-12-31T06:29:42.681Z,0
2017-12-31T06:30:42.644Z,0
2017-12-31T06:31:42.534Z,0
2017-12-31T06:32:42.756Z,0
2017-12-31T06:33:43.083Z,0
2017-12-31T06:34:42.447Z,0
2017-12-31T06:35:42.906Z,0
2017-12-31T06:36:41.937Z,0
2017-12-31T06:37:42.232Z,0
2017-12-31T06:38:42.660Z,0
2017-12-31T06:39:42.573Z,0
2017-12-31T06:40:43.044Z,0
2017-12-31T06:41:42.245Z,0
2017-12-31T06:42:41.882Z,0
2017-12-31T06:43:42.220Z,0
2017-12-31T06:44:42.122Z,0
2017-12-31T06:45:42.462Z,0
2017-12-31T06:46:42.581Z,0
2017-12-31T06:47:43.116Z,0
2017-12-31T06:48:41.773Z,0
2017-12-31T06:49:43.115Z,0
2017-12-31T06:50:42.008Z,0
2017-12-31T06:51:42.393Z,0
2017-12-31T06:52:42.858Z,0
2017-12-31T06:53:43.095Z,0
2017-12-31T06:54:42.063Z,0
2017-12-31T06:55:42.303Z,0
2017-12-31T06:56:41.901Z,0
2017-12-31T06:57:42.304Z,0
2017-12-31T06:58:42.693Z,0
2017-12-31T06:59:42.345Z,0
2017-12-31T07:00:42.716Z,0
2017-12-31T07:01:42.278Z,0
2017-12-31T07:02:42.577Z,0
2017-12-31T07:03:43.240Z,0
2017-12-31T07:04:42.226Z,0
2017-12-31T07:05:42.544Z,0
2017-12-31T07:06:42.663Z,0
2017-12-31T07:07:42.287Z,0
2017-12-31T07:08:42.092Z,0
2017-12-31T07:09:42.006Z,0
2017-12-31T07:10:42.356Z,0
2017-12-31T07:11:42.833Z,0
2017-12-31T07:12:42.325Z,0
2017-12-31T07:13:42.777Z,0
2017-12-31T07:14:43.217Z,0
2017-12-31T07:15:41.841Z,0
2017-12-31T07:16:41.896Z,0
2017-12-31T07:17:42.025Z,0
2017-12-31T07:18:42.330Z,0
2017-12-31T07:19:42.332Z,0
2017-12-31T07:20:42.696Z,0
2017-12-31T07:21:43.056Z,0
2017-12-31T07:22:42.505Z,0
2017-12-31T07:23:42.430Z,0
2017-12-31T07:24:42.241Z,0
2017-12-31T07:25:42.613Z,0
2017-12-31T07:26:43.145Z,0
2017-12-31T07:27:42.185Z,0
2017-12-31T07:28:42.753Z,0
2017-12-31T07:29:41.973Z,0
2017-12-31T07:30:42.502Z,0
2017-12-31T07:31:42.560Z,0
2017-12-31T07:32:43.041Z,0
2017-12-31T07:33:42.382Z,0
2017-12-31T07:34:42.853Z,0
2017-12-31T07:35:42.407Z,0
2017-12-31T07:36:42.746Z,0
2017-12-31T07:37:42.699Z,0
2017-12-31T07:38:42.940Z,0
2017-12-31T07:39:42.529Z,0
2017-12-31T07:40:42.769Z,0
2017-12-31T07:41:42.015Z,0
2017-12-31T07:42:42.727Z,0
2017-12-31T07:43:42.294Z,0
2017-12-31T07:44:42.418Z,0
2017-12-31T07:45:42.637Z,0
2017-12-31T07:46:42.681Z,0
2017-12-31T07:47:43.187Z,0
2017-12-31T07:48:41.975Z,1
2017-12-31T07:49:41.792Z,1
2017-12-31T07:50:42.517Z,1
2017-12-31T07:51:42.540Z,1
2017-12-31T07:52:42.781Z,1
2017-12-31T07:53:41.716Z,2
2017-12-31T07:54:43.173Z,1
2017-12-31T07:55:42.962Z,2
2017-12-31T07:56:42.141Z,1
2017-12-31T07:57:42.522Z,2
2017-12-31T07:58:42.414Z,2
2017-12-31T07:59:42.577Z,2
2017-12-31T08:00:43.097Z,2
2017-12-31T08:01:42.515Z,3
2017-12-31T08:02:43.003Z,2
2017-12-31T08:03:41.771Z,2
2017-12-31T08:04:42.303Z,2
2017-12-31T08:05:42.793Z,2
2017-12-31T08:06:41.924Z,3
2017-12-31T08:07:42.308Z,3
2017-12-31T08:08:42.975Z,2
2017-12-31T08:09:42.035Z,2
2017-12-31T08:10:42.151Z,2
2017-12-31T08:11:42.437Z,3
2017-12-31T08:12:42.194Z,3
2017-12-31T08:13:42.170Z,3
2017-12-31T08:14:42.147Z,4
2017-12-31T08:15:42.685Z,4
2017-12-31T08:16:42.783Z,4
2017-12-31T08:17:42.025Z,7
2017-12-31T08:18:42.135Z,5
2017-12-31T08:19:42.122Z,7
2017-12-31T08:20:42.638Z,8
2017-12-31T08:21:42.905Z,8
2017-12-31T08:22:41.776Z,8
2017-12-31T08:23:42.839Z,9
2017-12-31T08:24:41.700Z,8
2017-12-31T08:25:41.608Z,9
2017-12-31T08:26:42.153Z,8
2017-12-31T08:27:42.464Z,8
2017-12-31T08:28:43.044Z,9
2017-12-31T08:29:41.781Z,7
2017-12-31T08:30:41.548Z,7
2017-12-31T08:31:43.005Z,8
2017-12-31T08:32:42.411Z,7
2017-12-31T08:33:43.150Z,7
2017-12-31T08:34:42.290Z,7
2017-12-31T08:35:42.896Z,7
2017-12-31T08:36:41.607Z,7
2017-12-31T08:37:42.758Z,7
2017-12-31T08:38:41.983Z,6
2017-12-31T08:39:42.112Z,7
2017-12-31T08:40:42.481Z,6
2017-12-31T08:41:42.318Z,5
2017-12-31T08:42:42.865Z,5
2017-12-31T08:43:42.217Z,5
2017-12-31T08:44:42.589Z,5
2017-12-31T08:45:42.440Z,5
2017-12-31T08:46:42.130Z,4
2017-12-31T08:47:41.941Z,6
2017-12-31T08:48:42.736Z,6
2017-12-31T08:49:41.639Z,5
2017-12-31T08:50:42.262Z,6
2017-12-31T08:51:42.091Z,6
2017-12-31T08:52:41.933Z,6
2017-12-31T08:53:42.025Z,7
2017-12-31T08:54:42.360Z,7
2017-12-31T08:55:42.523Z,8
2017-12-31T08:56:42.959Z,7
2017-12-31T08:57:41.783Z,6
2017-12-31T08:58:42.004Z,7
2017-12-31T08:59:41.714Z,7
2017-12-31T09:00:41.529Z,7
2017-12-31T09:01:42.605Z,7
2017-12-31T09:02:42.337Z,7
2017-12-31T09:03:42.600Z,9
2017-12-31T09:04:43.218Z,11
2017-12-31T09:05:42.410Z,12
2017-12-31T09:06:42.829Z,10
2017-12-31T09:07:42.298Z,11
2017-12-31T09:08:42.895Z,11
2017-12-31T09:09:42.259Z,10
2017-12-31T09:10:42.797Z,9
2017-12-31T09:11:42.222Z,9
2017-12-31T09:12:42.625Z,8
2017-12-31T09:13:43.004Z,8
2017-12-31T09:14:42.471Z,9
2017-12-31T09:15:42.964Z,7
2017-12-31T09:16:42.434Z,8
2017-12-31T09:17:42.899Z,9
2017-12-31T09:18:42.403Z,13
2017-12-31T09:19:42.900Z,15
2017-12-31T09:20:42.350Z,19
2017-12-31T09:22:07.923Z,15
2017-12-31T09:23:09.268Z,17
2017-12-31T09:24:07.944Z,16
2017-12-31T09:25:08.363Z,13
2017-12-31T09:26:07.868Z,11
2017-12-31T09:27:08.480Z,11
2017-12-31T09:28:07.245Z,11
2017-12-31T09:29:08.139Z,11
2017-12-31T09:30:08.745Z,10
2017-12-31T09:31:07.994Z,12
2017-12-31T09:32:08.570Z,14
2017-12-31T09:33:07.636Z,19
2017-12-31T09:34:07.637Z,18
2017-12-31T09:35:07.507Z,17
2017-12-31T09:36:08.102Z,19
2017-12-31T09:37:08.011Z,27
2017-12-31T09:38:08.600Z,27
2017-12-31T09:39:08.226Z,26
2017-12-31T09:40:08.768Z,23
2017-12-31T09:41:08.081Z,21
2017-12-31T09:42:08.797Z,19
2017-12-31T09:43:09.154Z,20
2017-12-31T09:44:08.349Z,22
2017-12-31T09:45:07.863Z,25
2017-12-31T09:46:30.699Z,23
2017-12-31T09:47:30.623Z,27
2017-12-31T09:48:30.592Z,31
2017-12-31T09:49:31.133Z,35
2017-12-31T09:50:31.653Z,49
2017-12-31T09:51:30.459Z,69
2017-12-31T09:52:30.597Z,71
2017-12-31T09:53:30.836Z,43
2017-12-31T09:54:31.473Z,30
2017-12-31T09:55:30.635Z,24
2017-12-31T09:56:53.491Z,36
2017-12-31T09:57:54.092Z,50
2017-12-31T09:58:53.518Z,53
2017-12-31T09:59:54.700Z,37
2017-12-31T10:00:53.910Z,30
2017-12-31T10:01:54.068Z,24
2017-12-31T10:02:53.657Z,20
2017-12-31T10:03:53.778Z,29
2017-12-31T10:04:54.272Z,34
2017-12-31T10:05:53.258Z,35
2017-12-31T10:06:53.454Z,36
2017-12-31T10:07:54.533Z,50
2017-12-31T10:08:54.006Z,62
2017-12-31T10:09:53.309Z,68
2017-12-31T10:10:54.279Z,59
2017-12-31T10:11:53.803Z,66
2017-12-31T10:12:54.111Z,61
2017-12-31T10:13:53.467Z,42
2017-12-31T10:14:53.910Z,40
2017-12-31T10:15:54.766Z,41
2017-12-31T10:16:54.175Z,52
2017-12-31T10:17:53.584Z,48
2017-12-31T10:18:53.494Z,40
2017-12-31T10:19:54.634Z,38
2017-12-31T10:20:55.301Z,29
2017-12-31T10:21:53.718Z,30
2017-12-31T10:22:53.656Z,36
2017-12-31T10:23:54.048Z,40
2017-12-31T10:24:54.037Z,43
2017-12-31T10:26:17.157Z,28
2017-12-31T10:27:18.534Z,29
2017-12-31T10:28:18.068Z,39
2017-12-31T10:29:17.563Z,34
2017-12-31T10:30:17.471Z,30
2017-12-31T10:31:17.584Z,19
2017-12-31T10:32:17.984Z,23
2017-12-31T10:33:17.471Z,24
2017-12-31T10:34:17.705Z,21
2017-12-31T10:35:18.218Z,26
2017-12-31T10:36:17.318Z,24
2017-12-31T10:37:18.007Z,25
2017-12-31T10:38:17.455Z,28
2017-12-31T10:39:17.923Z,23
2017-12-31T10:40:18.429Z,22
2017-12-31T10:41:18.032Z,16
2017-12-31T10:42:17.545Z,20
2017-12-31T10:43:18.188Z,22
2017-12-31T10:44:17.924Z,27
2017-12-31T10:45:17.614Z,30
2017-12-31T10:46:18.267Z,30
2017-12-31T10:47:17.835Z,33
2017-12-31T10:48:18.357Z,33
2017-12-31T10:49:40.046Z,30
2017-12-31T10:50:40.156Z,30
2017-12-31T10:51:40.594Z,32
2017-12-31T10:53:01.699Z,34
2017-12-31T10:54:03.857Z,31
2017-12-31T10:55:01.627Z,22
2017-12-31T10:56:03.251Z,19
2017-12-31T10:57:02.855Z,25
2017-12-31T10:58:02.330Z,25
2017-12-31T10:59:02.817Z,28
2017-12-31T11:00:02.549Z,40
2017-12-31T11:01:03.018Z,31
2017-12-31T11:02:02.391Z,29
2017-12-31T11:03:02.287Z,25
2017-12-31T11:04:02.741Z,27
2017-12-31T11:05:03.228Z,28
2017-12-31T11:06:02.128Z,30
2017-12-31T11:07:02.354Z,26
2017-12-31T11:08:46.207Z,40
2017-12-31T11:10:30.596Z,34
2017-12-31T11:11:30.990Z,38
2017-12-31T11:12:31.372Z,29
2017-12-31T11:13:30.739Z,29
2017-12-31T11:14:31.104Z,24
2017-12-31T11:15:31.726Z,23
2017-12-31T11:16:31.541Z,24
2017-12-31T11:17:32.060Z,22
2017-12-31T11:18:31.553Z,19
2017-12-31T11:19:31.368Z,18
2017-12-31T11:20:31.090Z,18
2017-12-31T11:21:31.629Z,18
2017-12-31T11:22:30.950Z,16
2017-12-31T11:23:32.523Z,24
2017-12-31T11:24:30.535Z,32
2017-12-31T11:25:31.036Z,25
2017-12-31T11:26:31.662Z,25
2017-12-31T11:27:31.360Z,28
2017-12-31T11:28:33.029Z,28
2017-12-31T11:29:31.080Z,38
2017-12-31T11:30:31.146Z,46
2017-12-31T11:31:32.013Z,44
2017-12-31T11:32:32.449Z,31
2017-12-31T11:33:30.952Z,27
2017-12-31T11:34:31.359Z,23
2017-12-31T11:35:31.213Z,29
2017-12-31T11:36:31.853Z,26
2017-12-31T11:37:31.377Z,24
2017-12-31T11:38:31.577Z,27
2017-12-31T11:39:53.565Z,21
2017-12-31T11:40:53.687Z,32
2017-12-31T11:41:55.359Z,23
2017-12-31T11:42:53.749Z,28
2017-12-31T11:43:54.141Z,35
2017-12-31T11:44:53.510Z,35
2017-12-31T11:45:54.036Z,37
2017-12-31T11:46:52.956Z,28
2017-12-31T11:47:54.275Z,27
2017-12-31T11:48:53.809Z,33
2017-12-31T11:49:54.254Z,35
2017-12-31T11:50:53.816Z,32
2017-12-31T11:51:53.827Z,33
2017-12-31T11:52:54.413Z,49
2017-12-31T11:53:53.902Z,47
2017-12-31T11:54:53.957Z,47
2017-12-31T11:55:53.622Z,38
2017-12-31T11:56:54.040Z,40
2017-12-31T11:57:53.502Z,45
2017-12-31T11:58:53.643Z,42
2017-12-31T12:00:16.451Z,49
2017-12-31T12:01:17.815Z,65
2017-12-31T12:02:17.671Z,61
2017-12-31T12:03:18.664Z,53
2017-12-31T12:04:17.150Z,45
2017-12-31T12:05:16.621Z,41
2017-12-31T12:06:16.894Z,26
2017-12-31T12:07:16.594Z,26
2017-12-31T12:08:17.148Z,27
2017-12-31T12:09:16.461Z,25
2017-12-31T12:10:17.565Z,33
2017-12-31T12:11:17.233Z,36
2017-12-31T12:12:16.406Z,39
2017-12-31T12:13:16.719Z,39
2017-12-31T12:14:17.821Z,31
2017-12-31T12:15:17.382Z,27
2017-12-31T12:16:16.809Z,30
2017-12-31T12:17:17.282Z,46
2017-12-31T12:19:00.779Z,70
2017-12-31T12:20:01.440Z,81
2017-12-31T12:21:02.549Z,78
2017-12-31T12:22:05.680Z,55
2017-12-31T12:23:01.418Z,47
2017-12-31T12:24:01.986Z,37
2017-12-31T12:25:03.269Z,32
2017-12-31T12:26:02.335Z,25
2017-12-31T12:27:01.796Z,33
2017-12-31T12:28:00.618Z,28
2017-12-31T12:29:01.131Z,20
2017-12-31T12:30:03.043Z,21
2017-12-31T12:31:02.243Z,20
2017-12-31T12:32:03.643Z,18
2017-12-31T12:33:01.070Z,19
2017-12-31T12:34:01.747Z,23
2017-12-31T12:35:02.458Z,38
2017-12-31T12:36:02.017Z,44
2017-12-31T12:37:02.495Z,35
2017-12-31T12:38:01.871Z,23
2017-12-31T12:39:02.298Z,19
2017-12-31T12:40:01.831Z,24
2017-12-31T12:41:01.166Z,26
2017-12-31T12:42:02.048Z,23
2017-12-31T12:43:01.804Z,26
2017-12-31T12:44:01.114Z,27
2017-12-31T12:45:02.171Z,33
2017-12-31T12:46:02.389Z,27
2017-12-31T12:47:01.564Z,31
2017-12-31T12:48:01.011Z,27
2017-12-31T12:49:02.884Z,36
2017-12-31T12:50:01.480Z,39
2017-12-31T12:51:01.939Z,35
2017-12-31T12:52:01.658Z,37
2017-12-31T12:53:01.639Z,26
2017-12-31T12:54:02.088Z,18
2017-12-31T12:55:01.474Z,12
2017-12-31T12:56:01.305Z,12
2017-12-31T12:57:02.606Z,14
2017-12-31T12:58:01.279Z,15
2017-12-31T12:59:01.903Z,13
2017-12-31T13:00:01.384Z,11
2017-12-31T13:01:01.437Z,10
2017-12-31T13:02:02.059Z,10
2017-12-31T13:03:01.746Z,9
2017-12-31T13:04:02.735Z,10
2017-12-31T13:05:01.248Z,9
2017-12-31T13:06:01.671Z,8
2017-12-31T13:07:01.166Z,8
2017-12-31T13:08:02.016Z,11
2017-12-31T13:09:02.218Z,14
2017-12-31T13:10:02.858Z,14
2017-12-31T13:11:02.092Z,10
2017-12-31T13:12:01.890Z,12
2017-12-31T13:13:02.195Z,10
2017-12-31T13:14:08.116Z,10
2017-12-31T13:15:13.560Z,10
2017-12-31T13:16:11.939Z,10
2017-12-31T13:17:09.731Z,13
2017-12-31T13:18:11.172Z,19
2017-12-31T13:19:02.147Z,23
2017-12-31T13:20:05.523Z,18
2017-12-31T13:21:01.254Z,17
2017-12-31T13:22:01.913Z,21
2017-12-31T13:23:01.489Z,25
2017-12-31T13:24:02.018Z,26
2017-12-31T13:25:01.663Z,27
2017-12-31T13:26:01.380Z,25
2017-12-31T13:27:01.041Z,36
2017-12-31T13:28:01.758Z,31
2017-12-31T13:29:01.285Z,21
2017-12-31T13:30:02.736Z,25
2017-12-31T13:31:00.997Z,17
2017-12-31T13:32:24.465Z,16
2017-12-31T13:33:25.682Z,15
2017-12-31T13:34:25.590Z,13
2017-12-31T13:35:25.175Z,13
2017-12-31T13:36:24.818Z,12
2017-12-31T13:37:26.928Z,15
2017-12-31T13:38:26.258Z,17
2017-12-31T13:39:25.399Z,11
2017-12-31T13:40:24.990Z,11
2017-12-31T13:41:24.271Z,10
2017-12-31T13:42:24.962Z,12
2017-12-31T13:43:24.811Z,10
2017-12-31T13:44:25.243Z,10
2017-12-31T13:45:24.204Z,12
2017-12-31T13:46:24.838Z,10
2017-12-31T13:47:47.792Z,7
2017-12-31T13:48:48.475Z,7
2017-12-31T13:49:47.999Z,6
2017-12-31T13:50:48.688Z,5
2017-12-31T13:51:48.157Z,5
2017-12-31T13:52:50.072Z,5
2017-12-31T13:53:49.194Z,6
2017-12-31T13:54:48.652Z,5
2017-12-31T13:55:48.819Z,6
2017-12-31T13:56:48.919Z,6
2017-12-31T13:57:48.660Z,5
2017-12-31T13:58:47.993Z,5
2017-12-31T13:59:49.139Z,6
2017-12-31T14:00:49.229Z,6
2017-12-31T14:01:48.145Z,8
2017-12-31T14:02:48.700Z,6
2017-12-31T14:03:48.182Z,5
2017-12-31T14:04:48.760Z,4
2017-12-31T14:05:48.363Z,4
2017-12-31T14:06:48.651Z,3
2017-12-31T14:07:47.820Z,3
2017-12-31T14:08:48.986Z,3
2017-12-31T14:09:48.196Z,3
2017-12-31T14:10:48.821Z,4
2017-12-31T14:11:47.686Z,4
2017-12-31T14:12:48.227Z,4
2017-12-31T14:13:48.106Z,3
2017-12-31T14:14:48.011Z,3
2017-12-31T14:15:48.370Z,4
2017-12-31T14:16:47.830Z,5
2017-12-31T14:17:47.730Z,4
2017-12-31T14:18:48.097Z,4
2017-12-31T14:19:48.700Z,3
2017-12-31T14:20:51.196Z,3
2017-12-31T14:21:47.857Z,3
2017-12-31T14:22:48.916Z,2
2017-12-31T14:23:48.181Z,3
2017-12-31T14:24:48.351Z,2
2017-12-31T14:25:48.618Z,3
2017-12-31T14:26:48.670Z,2
2017-12-31T14:27:47.426Z,3
2017-12-31T14:28:47.400Z,3
2017-12-31T14:29:47.837Z,4
2017-12-31T14:30:48.346Z,4
2017-12-31T14:31:47.823Z,4
2017-12-31T14:32:48.116Z,5
2017-12-31T14:33:49.744Z,5
2017-12-31T14:34:47.543Z,4
2017-12-31T14:35:47.694Z,4
2017-12-31T14:36:48.095Z,3
2017-12-31T14:37:49.263Z,3
2017-12-31T14:39:11.226Z,2
2017-12-31T14:40:12.469Z,2
2017-12-31T14:41:11.907Z,2
2017-12-31T14:42:11.175Z,3
2017-12-31T14:43:11.597Z,2
2017-12-31T14:44:11.867Z,3
2017-12-31T14:45:11.576Z,2
2017-12-31T14:46:34.480Z,2
2017-12-31T14:47:35.933Z,2
2017-12-31T14:48:35.275Z,3
2017-12-31T14:49:57.737Z,3
2017-12-31T14:51:20.528Z,2
2017-12-31T14:52:21.233Z,2
2017-12-31T14:53:20.831Z,2
2017-12-31T14:54:20.546Z,2